Terminal Aerodrome Forecast
Issued by NWS

Home | Current Version | Previous Version | Text Only | Print | Product List | Glossary On
Versions: 1 2 3 4 5 6 7 8 9 10 11 12 13 14 15 16
000
FTUS44 KSJT 171100
TAFSOA
TAF
KSOA 171138Z 1712/1812 11004KT P6SM SCT020 BKN120
      TEMPO 1712/1715 VRB03KT P6SM BKN015
     FM171800 15006KT P6SM SCT050 BKN200
     FM180900 12006KT P6SM SCT025=

USA.gov is the U.S. government's official web portal to all federal, state and local government web resources and services.